Time;durP1;ratioP1;P1;durP2;ratioP2;P2;SDS_P1;SDS_P2;PMS_P1;PMS_P2;Temp;Humidity;BMP_temperature;BMP_pressure;BME280_temperature;BME280_humidity;BME280_pressure;Samples;Min_cycle;Max_cycle;Signal;HPM_P1;HPM_P2
2021/12/28 00:00:29;;;;;;;1023.73;914.73;;;6.20;99.90;;;;;;4973511;28;20478;-82
2021/12/28 00:02:57;;;;;;;1021.00;911.60;;;6.20;99.90;;;;;;4973329;28;20991;-83
2021/12/28 00:05:25;;;;;;;1010.37;901.37;;;6.20;99.90;;;;;;4974536;28;20545;-83
2021/12/28 00:07:52;;;;;;;1011.20;902.80;;;6.20;99.90;;;;;;4975440;28;20459;-83
2021/12/28 00:10:20;;;;;;;1010.50;901.37;;;6.20;99.90;;;;;;4974301;28;20466;-83
2021/12/28 00:12:48;;;;;;;1028.27;919.00;;;6.20;99.90;;;;;;4975610;28;20498;-83
2021/12/28 00:15:32;;;;;;;1042.97;932.57;;;6.20;99.90;;;;;;4975187;28;20955;-83
2021/12/28 00:18:02;;;;;;;1048.00;936.83;;;6.20;99.90;;;;;;4975505;28;20537;-83
2021/12/28 00:20:30;;;;;;;1045.37;933.97;;;6.20;99.90;;;;;;4975215;28;20479;-83
2021/12/28 00:22:57;;;;;;;1044.03;932.40;;;6.20;99.90;;;;;;4977872;28;20825;-84
2021/12/28 00:25:24;;;;;;;1044.70;933.03;;;6.20;99.90;;;;;;4978713;28;20970;-82
2021/12/28 00:27:51;;;;;;;1057.13;944.87;;;6.20;99.90;;;;;;4979424;28;20461;-83
2021/12/28 00:30:20;;;;;;;1057.60;946.50;;;6.10;99.90;;;;;;4978479;28;20952;-82
2021/12/28 00:32:52;;;;;;;1058.57;946.77;;;6.10;99.90;;;;;;4977975;28;20489;-83
2021/12/28 00:35:20;;;;;;;1056.50;944.30;;;6.20;99.90;;;;;;4978380;28;20504;-81
2021/12/28 00:37:46;;;;;;;1054.43;942.67;;;6.20;99.90;;;;;;4978297;28;20839;-82
2021/12/28 00:40:13;;;;;;;1053.70;940.70;;;6.10;99.90;;;;;;4978990;28;20530;-83
2021/12/28 00:42:40;;;;;;;1058.47;946.20;;;6.10;99.90;;;;;;4979730;28;20478;-82
2021/12/28 00:45:08;;;;;;;1070.90;957.53;;;6.00;99.90;;;;;;4978071;28;20455;-83
2021/12/28 00:47:36;;;;;;;1072.00;959.20;;;6.00;99.90;;;;;;4978982;28;20466;-82
2021/12/28 00:50:05;;;;;;;1090.33;976.33;;;6.00;99.90;;;;;;4978719;28;20828;-82
2021/12/28 00:52:31;;;;;;;1079.83;965.00;;;6.00;99.90;;;;;;4978954;28;20485;-83
2021/12/28 00:54:58;;;;;;;1089.90;974.50;;;6.00;99.90;;;;;;4978411;28;20458;-83
2021/12/28 00:57:25;;;;;;;1079.53;964.67;;;6.10;99.90;;;;;;4977336;28;20450;-82
2021/12/28 00:59:51;;;;;;;1077.40;963.07;;;6.10;99.90;;;;;;4977455;28;20479;-82
2021/12/28 01:02:18;;;;;;;1078.90;964.20;;;6.10;99.90;;;;;;4977489;28;20463;-82
2021/12/28 01:04:46;;;;;;;1077.03;962.63;;;6.20;99.90;;;;;;4976332;28;20835;-82
2021/12/28 01:07:13;;;;;;;1078.10;964.00;;;6.10;99.90;;;;;;4976133;28;20455;-83
2021/12/28 01:09:42;;;;;;;1083.00;967.90;;;6.10;99.90;;;;;;4977974;28;20462;-83
2021/12/28 01:12:10;;;;;;;1081.30;966.70;;;6.10;99.90;;;;;;4978546;28;20527;-83
2021/12/28 01:14:37;;;;;;;1086.23;971.57;;;6.10;99.90;;;;;;4979075;28;20455;-84
2021/12/28 01:17:05;;;;;;;1084.60;970.13;;;6.10;99.90;;;;;;4978757;28;20939;-83
2021/12/28 01:19:32;;;;;;;1064.93;949.80;;;6.10;99.90;;;;;;4978347;28;20483;-84
2021/12/28 01:22:01;;;;;;;1084.17;968.87;;;6.10;99.90;;;;;;4977426;28;20459;-82
2021/12/28 01:24:28;;;;;;;1089.70;973.60;;;6.20;99.90;;;;;;4976412;28;20555;-82
2021/12/28 01:26:55;;;;;;;1092.17;976.40;;;6.20;99.90;;;;;;4976735;28;20462;-83
2021/12/28 01:29:22;;;;;;;1086.03;970.13;;;6.30;99.90;;;;;;4976782;28;20455;-81
2021/12/28 01:31:49;;;;;;;1094.63;978.43;;;6.30;99.90;;;;;;4977785;28;20469;-82
2021/12/28 01:34:16;;;;;;;1089.00;974.10;;;6.30;99.90;;;;;;4975353;28;20478;-81
2021/12/28 01:36:42;;;;;;;1089.70;974.07;;;6.30;99.90;;;;;;4976285;28;20458;-82
2021/12/28 01:39:11;;;;;;;1083.50;968.50;;;6.30;99.90;;;;;;4975854;28;20459;-83
2021/12/28 01:41:38;;;;;;;1087.53;974.73;;;6.40;99.90;;;;;;4956310;28;20460;-81
2021/12/28 01:44:09;;;;;;;1084.60;971.63;;;6.30;99.90;;;;;;4956392;28;20468;-84
2021/12/28 01:46:36;;;;;;;1087.33;974.50;;;6.30;99.90;;;;;;4976714;28;20451;-83
2021/12/28 01:49:04;;;;;;;1084.37;972.20;;;6.40;99.90;;;;;;4976834;28;20454;-83
2021/12/28 01:51:32;;;;;;;1087.13;972.93;;;6.40;99.90;;;;;;4975315;28;20462;-83
2021/12/28 01:54:01;;;;;;;1086.77;974.97;;;6.40;99.90;;;;;;4975413;28;20809;-82
2021/12/28 01:56:36;;;;;;;1069.23;958.27;;;6.50;99.90;;;;;;4976888;28;20458;-82
2021/12/28 01:59:05;;;;;;;1067.10;957.10;;;6.60;99.90;;;;;;4975775;28;20611;-83
2021/12/28 02:01:33;;;;;;;1056.80;950.00;;;6.60;99.90;;;;;;4976964;28;20479;-83
2021/12/28 02:04:01;;;;;;;1050.03;944.00;;;6.70;99.90;;;;;;4977320;28;20483;-84
2021/12/28 02:06:28;;;;;;;1033.40;928.10;;;6.60;99.90;;;;;;4976946;28;20455;-83
2021/12/28 02:08:55;;;;;;;1020.00;917.20;;;6.70;99.90;;;;;;4976366;28;20459;-83
2021/12/28 02:11:22;;;;;;;995.93;895.03;;;6.80;99.90;;;;;;4976514;28;20790;-82
2021/12/28 02:13:51;;;;;;;995.63;894.63;;;6.90;99.90;;;;;;4976549;28;20843;-83
2021/12/28 02:16:18;;;;;;;942.73;844.73;;;6.90;99.90;;;;;;4976063;28;20460;-82
2021/12/28 02:18:45;;;;;;;945.40;847.80;;;7.00;99.90;;;;;;4975871;28;20451;-83
2021/12/28 02:21:13;;;;;;;943.07;846.17;;;6.90;99.90;;;;;;4976324;28;20477;-81
2021/12/28 02:23:40;;;;;;;967.00;867.80;;;7.00;99.90;;;;;;4976410;28;20858;-82
2021/12/28 02:26:08;;;;;;;989.40;888.80;;;6.90;99.90;;;;;;4976610;28;20455;-83
2021/12/28 02:28:35;;;;;;;998.87;897.67;;;7.10;99.90;;;;;;4975876;28;20861;-82
2021/12/28 02:31:03;;;;;;;990.57;890.00;;;7.10;99.90;;;;;;4956976;28;20459;-83
2021/12/28 02:33:30;;;;;;;991.37;891.07;;;7.10;99.90;;;;;;4956411;28;20480;-82
2021/12/28 02:35:58;;;;;;;983.90;884.83;;;7.10;99.90;;;;;;4974326;28;20462;-82
2021/12/28 02:38:27;;;;;;;988.97;887.70;;;7.20;99.90;;;;;;4975773;28;20459;-82
2021/12/28 02:40:55;;;;;;;1017.03;914.17;;;7.20;99.90;;;;;;4974971;28;20482;-84
2021/12/28 02:43:22;;;;;;;1018.17;915.33;;;7.30;99.90;;;;;;4975387;28;20486;-82
2021/12/28 02:45:52;;;;;;;1013.93;911.23;;;7.30;99.90;;;;;;4974463;28;20455;-83
2021/12/28 02:48:19;;;;;;;991.70;890.60;;;7.30;99.90;;;;;;4975296;28;20443;-82
2021/12/28 02:50:49;;;;;;;957.77;857.53;;;7.50;99.90;;;;;;4974871;28;20970;-81
2021/12/28 02:53:18;;;;;;;920.53;821.73;;;7.40;99.90;;;;;;4974937;28;20565;-83
2021/12/28 02:55:48;;;;;;;922.03;822.13;;;7.40;99.90;;;;;;4974381;28;20952;-82
2021/12/28 02:58:27;;;;;;;941.17;839.27;;;7.50;99.90;;;;;;4974274;28;20463;-83
2021/12/28 03:00:56;;;;;;;906.13;787.40;;;7.60;99.90;;;;;;4974402;28;20489;-81
2021/12/28 03:03:26;;;;;;;939.73;838.53;;;7.60;99.90;;;;;;4974139;28;21000;-82
2021/12/28 03:05:55;;;;;;;942.33;839.73;;;7.60;99.90;;;;;;4973880;28;20451;-81
2021/12/28 03:08:25;;;;;;;913.57;797.90;;;7.60;99.90;;;;;;4973877;28;20454;-81
2021/12/28 03:10:54;;;;;;;945.00;842.43;;;7.60;99.90;;;;;;4972719;28;20454;-81
2021/12/28 03:13:23;;;;;;;931.00;828.70;;;7.70;99.90;;;;;;4974090;28;20475;-80
2021/12/28 03:15:52;;;;;;;893.07;784.57;;;7.70;99.90;;;;;;4973704;28;20546;-82
2021/12/28 03:18:19;;;;;;;887.73;773.40;;;7.70;99.90;;;;;;4974724;28;20459;-82
2021/12/28 03:20:46;;;;;;;858.63;721.97;;;7.80;99.90;;;;;;4973473;28;20479;-82
2021/12/28 03:23:14;;;;;;;906.73;808.63;;;7.80;99.90;;;;;;4973677;28;21006;-82
2021/12/28 03:25:41;;;;;;;955.00;856.07;;;7.70;99.90;;;;;;4973674;28;20828;-82
2021/12/28 03:28:15;;;;;;;972.50;872.10;;;7.80;99.90;;;;;;4973452;28;20463;-81
2021/12/28 03:30:42;;;;;;;984.20;883.20;;;7.70;99.90;;;;;;4973693;28;20451;-82
2021/12/28 03:33:08;;;;;;;998.30;896.80;;;7.70;99.90;;;;;;4973655;28;20898;-83
2021/12/28 03:35:35;;;;;;;995.00;893.87;;;7.70;99.90;;;;;;4973306;28;20451;-82
2021/12/28 03:38:02;;;;;;;1004.43;902.83;;;7.70;99.90;;;;;;4973482;28;20481;-82
2021/12/28 03:40:29;;;;;;;1028.23;923.03;;;7.60;99.90;;;;;;4973088;28;20481;-82
2021/12/28 03:42:56;;;;;;;1037.37;931.57;;;7.50;99.90;;;;;;4973311;28;21017;-82
2021/12/28 03:45:24;;;;;;;1033.63;926.70;;;7.50;99.90;;;;;;4973231;28;20451;-83
2021/12/28 03:47:51;;;;;;;1031.63;924.80;;;7.50;99.90;;;;;;4972838;28;20471;-82
2021/12/28 03:50:19;;;;;;;1042.03;932.80;;;7.50;99.90;;;;;;4974684;28;20470;-83
2021/12/28 03:52:46;;;;;;;1023.20;916.60;;;7.50;99.90;;;;;;4973526;28;20497;-82
2021/12/28 03:55:13;;;;;;;1041.67;934.03;;;7.50;99.90;;;;;;4972667;28;20986;-83
2021/12/28 03:57:41;;;;;;;1038.47;928.67;;;7.60;99.90;;;;;;4974768;28;20454;-83
2021/12/28 04:00:10;;;;;;;1042.30;932.90;;;7.50;99.90;;;;;;4977210;28;20843;-84
2021/12/28 04:02:38;;;;;;;1031.43;923.83;;;7.60;99.90;;;;;;4976691;28;20471;-83
2021/12/28 04:05:06;;;;;;;1030.43;920.90;;;7.60;99.90;;;;;;4977565;28;20466;-83
2021/12/28 04:07:32;;;;;;;1035.20;927.53;;;7.60;99.90;;;;;;4977866;28;20458;-84
2021/12/28 04:10:02;;;;;;;1036.87;929.10;;;7.70;99.90;;;;;;4977594;28;20486;-84
2021/12/28 04:12:30;;;;;;;1037.67;928.57;;;7.60;99.90;;;;;;4978021;28;20475;-85
2021/12/28 04:14:57;;;;;;;1058.40;946.83;;;7.70;99.90;;;;;;4977370;28;20818;-84
2021/12/28 04:17:24;;;;;;;1044.27;934.07;;;7.70;99.90;;;;;;4977391;28;20463;-84
2021/12/28 04:19:52;;;;;;;1035.57;924.10;;;7.70;99.90;;;;;;4976593;28;20455;-83
2021/12/28 04:22:20;;;;;;;1034.73;924.70;;;7.70;99.90;;;;;;4964352;28;20463;-84
2021/12/28 04:24:47;;;;;;;1006.63;897.50;;;7.70;99.90;;;;;;4977282;28;20462;-83
2021/12/28 04:27:14;;;;;;;1009.53;898.50;;;7.80;99.90;;;;;;4976732;28;20451;-83
2021/12/28 04:29:41;;;;;;;992.30;883.03;;;7.80;99.90;;;;;;4977012;28;20455;-83
2021/12/28 04:32:08;;;;;;;990.10;880.90;;;7.90;99.90;;;;;;4976276;28;20469;-81
2021/12/28 04:34:35;;;;;;;988.73;879.30;;;7.90;99.90;;;;;;4977160;28;20468;-82
2021/12/28 04:37:04;;;;;;;1008.10;897.57;;;7.90;99.90;;;;;;4977412;28;20459;-83
2021/12/28 04:39:30;;;;;;;1014.03;902.77;;;8.00;99.90;;;;;;4976720;28;20849;-84
2021/12/28 04:41:57;;;;;;;1020.87;909.70;;;8.00;99.90;;;;;;4976484;28;21030;-83
2021/12/28 04:44:25;;;;;;;1034.63;923.43;;;8.10;99.90;;;;;;4976258;28;20470;-83
2021/12/28 04:46:53;;;;;;;1032.23;919.93;;;8.00;99.90;;;;;;4976912;28;20529;-83
2021/12/28 04:49:22;;;;;;;1022.40;910.63;;;8.00;99.90;;;;;;4979045;28;20477;-83
2021/12/28 04:51:49;;;;;;;1022.60;911.37;;;8.10;99.90;;;;;;4977124;28;20451;-84
2021/12/28 04:54:18;;;;;;;1011.73;903.60;;;8.10;99.90;;;;;;4976395;28;21026;-83
2021/12/28 04:56:46;;;;;;;986.43;878.43;;;8.10;99.90;;;;;;4975997;28;20911;-83
2021/12/28 04:59:13;;;;;;;986.60;881.00;;;8.10;99.90;;;;;;4975824;28;20891;-83
2021/12/28 05:01:40;;;;;;;982.87;876.30;;;8.20;99.90;;;;;;4976160;28;20475;-84
2021/12/28 05:04:08;;;;;;;991.10;885.13;;;8.20;99.90;;;;;;4977298;28;20470;-84
2021/12/28 05:06:35;;;;;;;996.10;890.40;;;8.20;99.90;;;;;;4978369;28;20451;-84
2021/12/28 05:09:04;;;;;;;1012.03;904.40;;;8.20;99.90;;;;;;4975465;28;20461;-84
2021/12/28 05:11:33;;;;;;;1017.60;910.27;;;8.20;99.90;;;;;;4976716;28;20455;-84
2021/12/28 05:14:00;;;;;;;1009.40;901.50;;;8.20;99.90;;;;;;4977184;28;20482;-84
2021/12/28 05:16:29;;;;;;;1016.33;906.73;;;8.20;99.90;;;;;;4977219;28;20459;-85
2021/12/28 05:18:57;;;;;;;1006.20;898.37;;;8.30;99.90;;;;;;4976811;28;20531;-84
2021/12/28 05:21:24;;;;;;;1003.37;896.83;;;8.30;99.90;;;;;;4976640;28;20481;-84
2021/12/28 05:23:51;;;;;;;986.20;882.50;;;8.30;99.90;;;;;;4976490;28;20486;-84
2021/12/28 05:26:17;;;;;;;978.47;875.23;;;8.30;99.90;;;;;;4976306;28;20494;-84
2021/12/28 05:28:45;;;;;;;976.10;870.97;;;8.30;99.90;;;;;;4976209;28;20454;-83
2021/12/28 05:31:12;;;;;;;970.23;865.57;;;8.40;99.90;;;;;;4976284;28;20454;-84
2021/12/28 05:33:40;;;;;;;1001.13;894.77;;;8.30;99.90;;;;;;4980545;28;20506;-81
2021/12/28 05:36:06;;;;;;;998.07;891.33;;;8.30;99.90;;;;;;4982253;28;20458;-83
2021/12/28 05:38:34;;;;;;;1002.37;896.67;;;8.40;99.90;;;;;;4978581;28;20447;-83
2021/12/28 05:41:01;;;;;;;991.13;886.80;;;8.30;99.90;;;;;;4976276;28;20467;-85
2021/12/28 05:43:27;;;;;;;998.27;892.77;;;8.30;99.90;;;;;;4977323;28;20987;-84
2021/12/28 05:45:56;;;;;;;1025.30;917.20;;;8.30;99.90;;;;;;4978025;28;20459;-84
2021/12/28 05:48:23;;;;;;;1026.20;918.33;;;8.30;99.90;;;;;;4974741;28;20454;-84
2021/12/28 05:50:50;;;;;;;1034.03;925.87;;;8.40;99.90;;;;;;4975669;28;20459;-84
2021/12/28 05:53:16;;;;;;;1018.93;910.17;;;8.30;99.90;;;;;;4975483;28;21021;-83
2021/12/28 05:55:44;;;;;;;1039.07;929.80;;;8.40;99.90;;;;;;4975374;28;20481;-84
2021/12/28 05:58:11;;;;;;;1009.73;902.23;;;8.40;99.90;;;;;;4975479;28;21035;-83
2021/12/28 06:00:38;;;;;;;1018.03;908.97;;;8.40;99.90;;;;;;4975492;28;20455;-83
2021/12/28 06:03:06;;;;;;;1004.47;897.70;;;8.40;99.90;;;;;;4975349;28;20501;-84
2021/12/28 06:05:33;;;;;;;1008.13;901.10;;;8.40;99.90;;;;;;4975211;28;20466;-84
2021/12/28 06:08:00;;;;;;;1019.03;912.47;;;8.40;99.90;;;;;;4974811;28;20974;-84
2021/12/28 06:10:27;;;;;;;1000.60;895.90;;;8.50;99.90;;;;;;4975362;28;20455;-84
2021/12/28 06:12:54;;;;;;;1027.30;921.10;;;8.40;99.90;;;;;;4975497;28;20471;-85
2021/12/28 06:15:21;;;;;;;1023.00;916.50;;;8.50;99.90;;;;;;4975255;28;20455;-84
2021/12/28 06:17:48;;;;;;;1030.20;923.07;;;8.40;99.90;;;;;;4974977;28;20462;-84
2021/12/28 06:20:16;;;;;;;1029.70;922.60;;;8.40;99.90;;;;;;4974786;28;20466;-85
2021/12/28 06:22:43;;;;;;;1030.83;924.07;;;8.40;99.90;;;;;;4974694;28;20479;-84
2021/12/28 06:25:10;;;;;;;1006.70;900.30;;;8.40;99.90;;;;;;4975165;28;20529;-84
2021/12/28 06:27:37;;;;;;;1007.30;899.67;;;8.40;99.90;;;;;;4974945;28;20462;-83
2021/12/28 06:30:05;;;;;;;991.00;885.83;;;8.40;99.90;;;;;;4974605;28;20455;-83
2021/12/28 06:32:31;;;;;;;1001.47;896.93;;;8.40;99.90;;;;;;4974304;28;20482;-85
2021/12/28 06:34:58;;;;;;;1010.67;903.57;;;8.40;99.90;;;;;;4974736;28;20451;-84
2021/12/28 06:37:26;;;;;;;1023.43;916.57;;;8.40;99.90;;;;;;4974707;28;20462;-84
2021/12/28 06:39:53;;;;;;;1018.53;910.27;;;8.40;99.90;;;;;;4973597;28;20462;-84
2021/12/28 06:42:20;;;;;;;1017.90;909.40;;;8.40;99.90;;;;;;4973757;28;21018;-84
2021/12/28 06:44:48;;;;;;;1013.60;906.97;;;8.40;99.90;;;;;;4963815;28;20459;-83
2021/12/28 06:47:15;;;;;;;1016.73;910.73;;;8.40;99.90;;;;;;4964109;28;20507;-84
2021/12/28 06:49:41;;;;;;;1031.43;923.13;;;8.40;99.90;;;;;;4966743;28;20455;-84
2021/12/28 06:52:08;;;;;;;1028.87;921.47;;;8.40;99.90;;;;;;4968507;28;20447;-84
2021/12/28 06:54:39;;;;;;;1032.00;924.80;;;8.40;99.90;;;;;;4958790;28;20836;-84
2021/12/28 06:57:08;;;;;;;1033.57;927.23;;;8.40;99.90;;;;;;4974452;28;20461;-84
2021/12/28 06:59:35;;;;;;;1035.33;927.67;;;8.40;99.90;;;;;;4973484;28;20459;-84
2021/12/28 07:02:01;;;;;;;1040.30;932.47;;;8.40;99.90;;;;;;4970032;28;20513;-84
2021/12/28 07:04:28;;;;;;;1027.47;918.53;;;8.40;99.90;;;;;;4966410;28;20479;-83
2021/12/28 07:06:55;;;;;;;1027.70;918.90;;;8.40;99.90;;;;;;4973568;28;20451;-86
2021/12/28 07:09:22;;;;;;;1035.33;927.97;;;8.40;99.90;;;;;;4973840;28;20836;-84
2021/12/28 07:11:50;;;;;;;1040.07;932.60;;;8.50;99.90;;;;;;4973236;28;20451;-83
2021/12/28 07:14:17;;;;;;;1038.67;930.57;;;8.40;99.90;;;;;;4973264;28;20991;-83
2021/12/28 07:16:43;;;;;;;1029.87;921.70;;;8.40;99.90;;;;;;4973212;28;20477;-85
2021/12/28 07:19:11;;;;;;;1033.20;926.57;;;8.40;99.90;;;;;;4973165;28;20455;-84
2021/12/28 07:21:38;;;;;;;1032.57;925.93;;;8.50;99.90;;;;;;4973697;28;20502;-82
2021/12/28 07:24:06;;;;;;;1030.13;923.30;;;8.60;99.90;;;;;;4973804;28;20479;-84
2021/12/28 07:26:33;;;;;;;1032.70;926.20;;;8.50;99.90;;;;;;4973400;28;20470;-84
2021/12/28 07:29:01;;;;;;;1020.60;914.00;;;8.50;99.90;;;;;;4973238;28;20831;-83
2021/12/28 07:31:28;;;;;;;1005.70;899.20;;;8.30;99.90;;;;;;4973251;28;20470;-83
2021/12/28 07:33:55;;;;;;;1022.53;916.07;;;8.30;99.90;;;;;;4973667;28;20475;-83
2021/12/28 07:36:22;;;;;;;1011.33;905.37;;;8.20;99.90;;;;;;4974197;28;20454;-83
2021/12/28 07:38:49;;;;;;;1005.03;898.30;;;8.20;99.90;;;;;;4973212;28;20455;-83
2021/12/28 07:41:16;;;;;;;1002.53;894.83;;;8.10;99.90;;;;;;4972689;28;20506;-83
2021/12/28 07:43:44;;;;;;;1013.37;904.47;;;8.10;99.90;;;;;;4973025;28;20844;-83
2021/12/28 07:46:12;;;;;;;1010.23;902.57;;;8.00;99.90;;;;;;4972460;28;20451;-83
2021/12/28 07:48:39;;;;;;;1017.23;908.03;;;8.00;99.90;;;;;;4972797;28;20978;-84
2021/12/28 07:51:07;;;;;;;1010.77;901.57;;;7.90;99.90;;;;;;4973400;28;20455;-85
2021/12/28 07:53:33;;;;;;;1008.87;901.70;;;7.90;99.90;;;;;;4974858;28;20475;-86
2021/12/28 07:56:02;;;;;;;1004.33;896.50;;;7.90;99.90;;;;;;4973853;28;20462;-85
2021/12/28 07:58:29;;;;;;;1012.23;903.30;;;8.10;99.90;;;;;;4971229;28;20451;-82
2021/12/28 08:00:56;;;;;;;997.67;889.10;;;8.10;99.90;;;;;;4971851;28;20513;-83
2021/12/28 08:03:25;;;;;;;1004.20;895.13;;;8.20;99.90;;;;;;4972382;28;21000;-82
2021/12/28 08:05:52;;;;;;;1016.87;907.70;;;8.20;99.90;;;;;;4971839;28;20446;-82
2021/12/28 08:08:19;;;;;;;1002.97;895.20;;;8.30;99.90;;;;;;4954139;28;20479;-82
2021/12/28 08:10:46;;;;;;;996.83;889.83;;;8.40;99.90;;;;;;4972959;28;20478;-83
2021/12/28 08:13:13;;;;;;;986.93;882.13;;;8.40;99.90;;;;;;4975472;28;20501;-85
2021/12/28 08:15:40;;;;;;;972.27;869.13;;;8.50;99.90;;;;;;4973777;28;20451;-82
2021/12/28 08:18:09;;;;;;;977.37;874.50;;;8.50;99.90;;;;;;4973507;28;20461;-81
2021/12/28 08:20:38;;;;;;;976.87;875.97;;;8.60;99.90;;;;;;4972007;28;20483;-82
2021/12/28 08:23:05;;;;;;;979.80;881.17;;;8.60;99.90;;;;;;4972824;28;20489;-83
2021/12/28 08:25:32;;;;;;;977.57;878.03;;;8.60;99.90;;;;;;4972648;28;20455;-82
2021/12/28 08:28:01;;;;;;;977.87;878.60;;;8.60;99.90;;;;;;4973024;28;20469;-85
2021/12/28 08:30:27;;;;;;;983.40;885.60;;;8.60;99.90;;;;;;4974268;28;20839;-83
2021/12/28 08:32:54;;;;;;;985.20;887.30;;;8.50;99.90;;;;;;4973016;28;20483;-83
2021/12/28 08:35:21;;;;;;;982.93;885.27;;;8.60;99.90;;;;;;4972998;28;20454;-83
2021/12/28 08:37:49;;;;;;;978.70;880.80;;;8.60;99.90;;;;;;4974981;28;20454;-84
2021/12/28 08:40:17;;;;;;;973.33;875.97;;;8.60;99.90;;;;;;4973038;28;20451;-84
2021/12/28 08:42:45;;;;;;;978.10;880.90;;;8.70;99.90;;;;;;4973812;28;20486;-84
2021/12/28 08:45:11;;;;;;;981.27;882.87;;;8.70;99.90;;;;;;4977311;28;20462;-84
2021/12/28 08:47:39;;;;;;;979.53;882.10;;;8.70;99.90;;;;;;4978546;28;20465;-84
2021/12/28 08:50:08;;;;;;;976.50;879.40;;;8.80;99.90;;;;;;4977617;28;20458;-82
2021/12/28 08:52:36;;;;;;;991.00;893.70;;;8.80;99.90;;;;;;4977355;28;20494;-83
2021/12/28 08:55:06;;;;;;;987.70;891.90;;;8.80;99.90;;;;;;4977530;28;21187;-83
2021/12/28 08:57:33;;;;;;;990.90;893.90;;;8.80;99.90;;;;;;4977229;28;20459;-83
2021/12/28 09:00:00;;;;;;;998.63;902.97;;;8.80;99.90;;;;;;4977409;28;20478;-83
2021/12/28 09:02:27;;;;;;;993.00;898.50;;;8.90;99.90;;;;;;4977555;28;20490;-84
2021/12/28 09:04:54;;;;;;;1006.07;912.20;;;8.90;99.90;;;;;;4978286;28;20845;-83
2021/12/28 09:07:21;;;;;;;993.37;899.87;;;8.80;99.90;;;;;;4960084;28;20456;-84
2021/12/28 09:09:48;;;;;;;975.20;883.50;;;8.90;99.90;;;;;;4958605;28;20468;-83
2021/12/28 09:12:16;;;;;;;980.77;889.47;;;8.90;99.90;;;;;;4976429;28;20524;-83
2021/12/28 09:14:43;;;;;;;969.80;879.30;;;9.00;99.90;;;;;;4978472;28;20451;-83
2021/12/28 09:17:10;;;;;;;962.43;872.73;;;9.00;99.90;;;;;;4978728;28;20462;-82
2021/12/28 09:19:37;;;;;;;954.80;865.80;;;9.10;99.90;;;;;;4978795;28;20840;-82
2021/12/28 09:22:05;;;;;;;945.20;858.60;;;9.10;99.90;;;;;;4978578;28;20497;-83
2021/12/28 09:24:32;;;;;;;931.67;844.53;;;9.20;99.90;;;;;;4977827;28;20482;-82
2021/12/28 09:26:59;;;;;;;930.97;846.67;;;9.20;99.90;;;;;;4980197;28;20455;-82
2021/12/28 09:29:29;;;;;;;925.83;842.40;;;9.30;99.90;;;;;;4978276;28;20478;-82
2021/12/28 09:31:57;;;;;;;909.60;827.97;;;9.30;99.90;;;;;;4977730;28;20466;-82
2021/12/28 09:34:23;;;;;;;895.80;816.00;;;9.40;99.90;;;;;;4979211;28;20475;-80
2021/12/28 09:36:50;;;;;;;877.57;799.67;;;9.40;99.90;;;;;;4981779;28;20455;-82
2021/12/28 09:39:22;;;;;;;867.97;790.40;;;9.40;99.90;;;;;;4976803;28;20463;-85
2021/12/28 09:41:51;;;;;;;869.63;793.40;;;9.40;99.90;;;;;;4977487;28;20455;-83
2021/12/28 09:44:18;;;;;;;849.63;775.23;;;9.50;99.90;;;;;;4976708;28;21046;-82
2021/12/28 09:46:46;;;;;;;809.03;737.63;;;9.40;99.90;;;;;;4977213;28;20455;-82
2021/12/28 09:49:13;;;;;;;774.03;705.97;;;9.50;99.90;;;;;;4958883;28;20461;-83
2021/12/28 09:51:40;;;;;;;770.60;705.40;;;9.70;99.90;;;;;;4959388;28;20904;-82
2021/12/28 09:54:07;;;;;;;773.57;710.03;;;9.70;99.90;;;;;;4977372;28;20470;-83
2021/12/28 09:56:33;;;;;;;768.77;706.63;;;9.90;99.90;;;;;;4978864;28;20462;-83
2021/12/28 09:59:01;;;;;;;754.47;693.07;;;10.00;99.90;;;;;;4976503;28;20984;-83
2021/12/28 10:01:28;;;;;;;758.77;697.17;;;9.90;99.90;;;;;;4977238;28;20509;-82
2021/12/28 10:03:57;;;;;;;758.27;697.17;;;9.90;99.90;;;;;;4977812;28;20569;-82
2021/12/28 10:06:27;;;;;;;753.73;692.70;;;10.00;99.90;;;;;;4978781;28;20840;-82
2021/12/28 10:09:10;;;;;;;759.37;699.17;;;9.90;99.90;;;;;;4978020;28;20459;-82
2021/12/28 10:11:39;;;;;;;748.00;686.80;;;9.90;99.90;;;;;;4976601;28;20498;-82
2021/12/28 10:14:17;;;;;;;748.27;686.47;;;9.90;99.90;;;;;;4975945;28;20634;-82
2021/12/28 10:16:48;;;;;;;749.30;687.90;;;9.90;99.90;;;;;;4976522;28;20458;-82
2021/12/28 10:19:40;;;;;;;759.03;697.20;;;9.90;99.90;;;;;;4976833;28;20844;-83
2021/12/28 10:22:21;;;;;;;748.23;686.23;;;9.90;99.90;;;;;;4977007;28;20898;-82
2021/12/28 10:24:49;;;;;;;742.97;680.20;;;9.90;99.90;;;;;;4977608;28;20455;-82
2021/12/28 10:27:17;;;;;;;759.43;696.83;;;9.90;99.90;;;;;;4978301;28;20451;-83
2021/12/28 10:29:50;;;;;;;745.60;683.60;;;10.00;99.90;;;;;;4981512;28;20451;-83
2021/12/28 10:32:20;;;;;;;764.70;704.00;;;10.10;99.90;;;;;;4979816;28;20547;-82
2021/12/28 10:34:51;;;;;;;757.60;696.63;;;10.20;99.90;;;;;;4976903;28;20440;-83
2021/12/28 10:37:20;;;;;;;753.47;694.90;;;10.30;99.90;;;;;;4958237;28;20447;-84
2021/12/28 10:39:54;;;;;;;742.03;685.37;;;10.20;99.90;;;;;;4958234;28;20460;-82
2021/12/28 10:42:47;;;;;;;754.63;697.53;;;10.30;99.90;;;;;;4977405;28;20522;-84
2021/12/28 10:45:17;;;;;;;751.67;695.20;;;10.30;99.90;;;;;;4977895;28;20466;-83
2021/12/28 10:47:44;;;;;;;747.20;692.43;;;10.40;99.90;;;;;;4978020;28;20944;-84
2021/12/28 10:50:36;;;;;;;736.83;683.87;;;10.30;99.90;;;;;;4977474;28;20451;-84
2021/12/28 10:53:08;;;;;;;748.87;693.20;;;10.30;99.90;;;;;;4976028;28;20474;-84
2021/12/28 10:55:35;;;;;;;739.37;683.40;;;10.40;99.90;;;;;;4976317;28;20447;-83
2021/12/28 10:58:05;;;;;;;742.17;685.90;;;10.40;99.90;;;;;;4977475;28;20450;-84
2021/12/28 11:00:38;;;;;;;734.77;679.67;;;10.50;99.90;;;;;;4977477;28;20455;-84
2021/12/28 11:03:23;;;;;;;737.90;683.30;;;10.50;99.90;;;;;;4977332;28;20479;-84
2021/12/28 11:05:52;;;;;;;740.00;685.10;;;10.60;99.90;;;;;;4977237;28;20927;-84
2021/12/28 11:08:23;;;;;;;743.07;689.13;;;10.70;99.90;;;;;;4976998;28;20451;-83
2021/12/28 11:10:55;;;;;;;761.90;707.80;;;10.70;99.90;;;;;;4977770;28;20455;-84
2021/12/28 11:13:28;;;;;;;755.70;702.50;;;10.80;99.90;;;;;;4977425;28;20565;-85
2021/12/28 11:15:55;;;;;;;748.90;696.70;;;11.00;99.90;;;;;;4978375;28;20478;-84
2021/12/28 11:18:25;;;;;;;743.37;691.57;;;11.00;99.90;;;;;;4978220;28;20534;-84
2021/12/28 11:20:55;;;;;;;741.60;688.87;;;11.10;99.90;;;;;;4978120;28;20551;-84
2021/12/28 11:23:26;;;;;;;752.80;701.83;;;11.20;99.90;;;;;;4977726;28;20522;-84
2021/12/28 11:26:10;;;;;;;750.40;698.67;;;11.10;99.90;;;;;;4978091;28;20465;-85
2021/12/28 11:28:38;;;;;;;742.70;691.47;;;11.00;99.90;;;;;;4977983;28;20454;-84
2021/12/28 11:31:12;;;;;;;743.03;693.50;;;11.10;99.90;;;;;;4977961;28;20948;-86
2021/12/28 11:33:54;;;;;;;741.23;692.10;;;11.10;99.90;;;;;;4977773;28;20474;-84
2021/12/28 11:36:24;;;;;;;743.20;693.57;;;11.10;99.90;;;;;;4977942;28;20447;-84
2021/12/28 11:38:52;;;;;;;735.23;684.80;;;11.10;99.90;;;;;;4976445;28;21019;-84
2021/12/28 11:41:19;;;;;;;733.57;682.50;;;11.10;99.90;;;;;;4976071;28;20468;-82
2021/12/28 11:43:47;;;;;;;718.03;665.57;;;11.00;99.90;;;;;;4973996;28;20492;-83
2021/12/28 11:46:14;;;;;;;719.03;665.70;;;10.90;99.90;;;;;;4974528;28;20837;-83
2021/12/28 11:48:42;;;;;;;708.73;653.07;;;10.80;99.90;;;;;;4974080;28;20467;-82
2021/12/28 11:51:10;;;;;;;702.20;645.40;;;10.70;99.90;;;;;;4974027;28;20459;-81
2021/12/28 11:53:42;;;;;;;713.67;655.00;;;10.70;99.90;;;;;;4973961;28;21010;-82
2021/12/28 11:56:12;;;;;;;707.77;648.70;;;10.70;99.90;;;;;;4975069;28;20466;-82
2021/12/28 11:58:50;;;;;;;718.93;658.37;;;10.60;99.90;;;;;;4974135;28;20956;-82
2021/12/28 12:01:39;;;;;;;732.17;670.30;;;10.60;99.90;;;;;;4974540;28;20455;-81
2021/12/28 12:04:59;;;;;;;749.87;686.10;;;10.60;99.90;;;;;;4976209;28;20515;-81
2021/12/28 12:07:36;;;;;;;728.03;667.37;;;10.60;99.90;;;;;;4976189;28;20461;-81
2021/12/28 12:10:20;;;;;;;754.50;690.20;;;10.60;99.90;;;;;;4974700;28;20914;-83
2021/12/28 12:13:02;;;;;;;740.07;679.70;;;10.60;99.90;;;;;;4975537;28;20470;-82
2021/12/28 12:15:37;;;;;;;753.67;692.50;;;10.70;99.90;;;;;;4976498;28;20451;-81
2021/12/28 12:18:04;;;;;;;790.83;720.78;;;10.70;99.90;;;;;;4976564;28;20939;-82